Time;durP1;ratioP1;P1;durP2;ratioP2;P2;SDS_P1;SDS_P2;PMS_P1;PMS_P2;Temp;Humidity;BMP_temperature;BMP_pressure;BME280_temperature;BME280_humidity;BME280_pressure;Samples;Min_cycle;Max_cycle;Signal;HPM_P1;HPM_P2
2021/11/24 00:00:54;;;;;;;13.60;8.55;;;;;;;-139.48;100.00;61217.00;5013191;28;20510;-65
2021/11/24 00:03:37;;;;;;;14.98;9.27;;;;;;;-139.48;100.00;61217.00;5013067;28;20057;-64
2021/11/24 00:06:21;;;;;;;12.65;8.18;;;;;;;-139.48;100.00;61217.00;5013355;28;20084;-65
2021/11/24 00:09:05;;;;;;;;;;;;;;;-139.48;100.00;61217.00;5013172;28;20125;-57
2021/11/24 00:11:49;;;;;;;14.75;8.23;;;;;;;-139.48;100.00;61217.00;5025292;28;20016;-62
2021/11/24 00:14:34;;;;;;;13.93;8.05;;;;;;;-139.48;100.00;61217.00;5012002;28;20049;-63
2021/11/24 00:17:18;;;;;;;13.20;7.40;;;;;;;-139.48;100.00;61217.00;5011696;28;20145;-64
2021/11/24 00:20:03;;;;;;;15.18;7.88;;;;;;;-139.48;100.00;61217.00;5011804;28;20053;-60
2021/11/24 00:22:47;;;;;;;12.52;7.80;;;;;;;-139.48;100.00;61217.00;5011665;28;20419;-61
2021/11/24 00:25:31;;;;;;;;;;;;;;;-139.48;100.00;61217.00;5013153;28;20100;-62
2021/11/24 00:28:15;;;;;;;15.75;7.68;;;;;;;-139.48;100.00;61217.00;5013022;28;19963;-59
2021/11/24 00:30:59;;;;;;;14.85;8.13;;;;;;;-139.48;100.00;61217.00;5011541;28;20045;-65
2021/11/24 00:33:43;;;;;;;15.07;9.50;;;;;;;-139.48;100.00;61217.00;5025782;28;20053;-64
2021/11/24 00:36:27;;;;;;;18.98;8.88;;;;;;;-139.48;100.00;61217.00;5012581;28;20057;-63
2021/11/24 00:39:11;;;;;;;17.33;9.35;;;;;;;-139.48;100.00;61217.00;5011378;28;20049;-64
2021/11/24 00:41:55;;;;;;;14.98;9.48;;;;;;;-139.48;100.00;61217.00;5011665;28;20052;-65
2021/11/24 00:44:39;;;;;;;17.55;10.88;;;;;;;-139.48;100.00;61217.00;5012510;28;20077;-64
2021/11/24 00:47:23;;;;;;;;;;;;;;;-139.48;100.00;61217.00;5012894;28;20049;-62
2021/11/24 00:50:07;;;;;;;14.98;9.20;;;;;;;-139.48;100.00;61217.00;5012650;28;19920;-63
2021/11/24 00:52:52;;;;;;;15.85;9.02;;;;;;;-139.48;100.00;61217.00;4997850;28;20526;-59
2021/11/24 00:55:36;;;;;;;13.95;8.98;;;;;;;-139.48;100.00;61217.00;5011503;28;20048;-62
2021/11/24 00:58:19;;;;;;;;;;;;;;;-139.48;100.00;61217.00;5011701;28;20143;-63
2021/11/24 01:01:03;;;;;;;17.77;9.20;;;;;;;-139.48;100.00;61217.00;5012654;28;19971;-63
2021/11/24 01:03:47;;;;;;;;;;;;;;;-139.48;100.00;61217.00;5011809;28;20303;-58
2021/11/24 01:06:31;;;;;;;18.88;8.25;;;;;;;-139.48;100.00;61217.00;5025300;28;19920;-63
2021/11/24 01:09:15;;;;;;;;;;;;;;;-139.48;100.00;61217.00;5025567;28;20088;-63
2021/11/24 01:12:00;;;;;;;15.98;9.57;;;;;;;-139.48;100.00;61217.00;5012509;28;19921;-63
2021/11/24 01:14:44;;;;;;;15.63;8.50;;;;;;;-139.48;100.00;61217.00;5011306;28;20569;-62
2021/11/24 01:17:28;;;;;;;13.52;7.95;;;;;;;-139.48;100.00;61217.00;5012209;28;20100;-63
2021/11/24 01:20:12;;;;;;;;;;;;;;;-139.48;100.00;61217.00;5011370;28;20116;-62
2021/11/24 01:22:56;;;;;;;16.60;9.27;;;;;;;-139.48;100.00;61217.00;5012512;28;19925;-62
2021/11/24 01:25:40;;;;;;;17.10;8.82;;;;;;;-139.48;100.00;61217.00;5014278;28;20522;-62
2021/11/24 01:28:24;;;;;;;13.77;8.55;;;;;;;-139.48;100.00;61217.00;5015452;28;20108;-65
2021/11/24 01:31:08;;;;;;;14.55;9.40;;;;;;;-139.48;100.00;61217.00;5014494;28;20104;-61
2021/11/24 01:33:52;;;;;;;;;;;;;;;-139.48;100.00;61217.00;5015218;28;20568;-61
2021/11/24 01:36:36;;;;;;;15.13;5.97;;;;;;;-139.48;100.00;61217.00;5015872;28;19936;-63
2021/11/24 01:39:20;;;;;;;14.82;9.43;;;;;;;-139.48;100.00;61217.00;5014293;28;20092;-63
2021/11/24 01:42:04;;;;;;;;;;;;;;;-139.48;100.00;61217.00;5015651;28;20060;-62
2021/11/24 01:44:48;;;;;;;21.25;10.15;;;;;;;-139.48;100.00;61217.00;5015872;28;19931;-63
2021/11/24 01:47:32;;;;;;;16.48;9.77;;;;;;;-139.48;100.00;61217.00;5028185;28;20049;-64
2021/11/24 01:50:17;;;;;;;18.48;10.10;;;;;;;-139.48;100.00;61217.00;5015300;28;20407;-63
2021/11/24 01:53:01;;;;;;;17.05;9.93;;;;;;;-139.48;100.00;61217.00;5014075;28;20045;-64
2021/11/24 01:55:45;;;;;;;16.10;9.88;;;;;;;-139.48;100.00;61217.00;5000454;28;20053;-60
2021/11/24 01:58:30;;;;;;;18.55;10.32;;;;;;;-139.48;100.00;61217.00;5015214;28;20053;-64
2021/11/24 02:01:14;;;;;;;18.90;10.25;;;;;;;-139.48;100.00;61217.00;5013936;28;20418;-63
2021/11/24 02:03:58;;;;;;;;;;;;;;;-139.48;100.00;61217.00;5015316;28;20107;-62
2021/11/24 02:06:42;;;;;;;18.35;10.10;;;;;;;-139.48;100.00;61217.00;5015395;28;19920;-64
2021/11/24 02:09:26;;;;;;;19.60;10.10;;;;;;;-139.48;100.00;61217.00;5014661;28;20470;-57
2021/11/24 02:12:11;;;;;;;24.88;11.18;;;;;;;-139.48;100.00;61217.00;5013816;28;20049;-62
2021/11/24 02:14:55;;;;;;;13.95;9.57;;;;;;;-139.48;100.00;61217.00;5014734;28;20137;-64
2021/11/24 02:17:39;;;;;;;17.10;10.05;;;;;;;-139.48;100.00;61217.00;5014583;28;20080;-57
2021/11/24 02:23:16;;;;;;;17.13;10.60;;;;;;;-139.48;100.00;61217.00;5013400;28;19967;-65
2021/11/24 02:26:00;;;;;;;16.35;9.82;;;;;;;-139.48;100.00;61217.00;4999994;28;20139;-68
2021/11/24 02:28:44;;;;;;;;;;;;;;;-139.48;100.00;61217.00;5000447;28;20137;-65
2021/11/24 02:31:29;;;;;;;17.77;9.50;;;;;;;-139.48;100.00;61217.00;5014433;28;19921;-65
2021/11/24 02:34:13;;;;;;;15.88;10.40;;;;;;;-139.48;100.00;61217.00;5013367;28;20414;-67
2021/11/24 02:36:57;;;;;;;;;;;;;;;-139.48;100.00;61217.00;5013813;28;20137;-65
2021/11/24 02:39:41;;;;;;;16.52;10.35;;;;;;;-139.48;100.00;61217.00;5013539;28;19928;-67
2021/11/24 02:42:24;;;;;;;17.95;10.77;;;;;;;-139.48;100.00;61217.00;5013168;28;20068;-65
2021/11/24 02:45:09;;;;;;;17.40;10.15;;;;;;;-139.48;100.00;61217.00;4999605;28;20135;-67
2021/11/24 02:47:53;;;;;;;17.67;10.60;;;;;;;-139.48;100.00;61217.00;5013352;28;20045;-65
2021/11/24 02:50:37;;;;;;;;;;;;;;;-139.48;100.00;61217.00;5013672;28;20091;-64
2021/11/24 02:53:30;;;;;;;14.85;9.98;;;;;;;-139.48;100.00;61217.00;5013265;28;20385;-67
2021/11/24 02:56:14;;;;;;;20.13;10.98;;;;;;;-139.48;100.00;61217.00;5012986;28;20144;-67
2021/11/24 02:58:58;;;;;;;;;;;;;;;-139.48;100.00;61217.00;5014557;28;20487;-67
2021/11/24 03:01:42;;;;;;;19.63;10.35;;;;;;;-139.48;100.00;61217.00;5014116;28;20341;-67
2021/11/24 03:04:31;;;;;;;20.42;11.10;;;;;;;-139.48;100.00;61217.00;5013061;28;20053;-67
2021/11/24 03:07:16;;;;;;;21.08;10.65;;;;;;;-139.48;100.00;61217.00;5012758;28;20073;-67
2021/11/24 03:10:00;;;;;;;21.67;12.10;;;;;;;-139.48;100.00;61217.00;5012949;28;20108;-67
2021/11/24 03:12:44;;;;;;;;;;;;;;;-139.48;100.00;61217.00;5013536;28;20099;-68
2021/11/24 03:15:28;;;;;;;19.88;11.48;;;;;;;-139.48;100.00;61217.00;5013802;28;19921;-67
2021/11/24 03:18:12;;;;;;;20.67;12.55;;;;;;;-139.48;100.00;61217.00;5012785;28;20104;-62
2021/11/24 03:20:56;;;;;;;23.58;13.10;;;;;;;-139.48;100.00;61217.00;5012602;28;20227;-67
2021/11/24 03:23:40;;;;;;;;;;;;;;;-139.48;100.00;61217.00;5013155;28;20045;-66
2021/11/24 03:26:24;;;;;;;16.80;9.98;;;;;;;-139.48;100.00;61217.00;5012452;28;19921;-66
2021/11/24 03:29:08;;;;;;;;;;;;;;;-139.48;100.00;61217.00;5014120;28;20464;-65
2021/11/24 03:31:52;;;;;;;22.40;11.77;;;;;;;-139.48;100.00;61217.00;5012530;28;20065;-68
2021/11/24 03:34:36;;;;;;;21.83;12.82;;;;;;;-139.48;100.00;61217.00;5013591;28;20103;-67
2021/11/24 03:37:21;;;;;;;22.65;12.20;;;;;;;-139.48;100.00;61217.00;5013531;28;20465;-66
2021/11/24 03:40:07;;;;;;;21.40;12.73;;;;;;;-139.48;100.00;61217.00;5012327;28;20587;-68
2021/11/24 03:42:51;;;;;;;19.65;13.27;;;;;;;-139.48;100.00;61217.00;4998233;28;20112;-66
2021/11/24 03:45:37;;;;;;;21.55;12.98;;;;;;;-139.48;100.00;61217.00;5012633;28;20048;-67
2021/11/24 03:48:21;;;;;;;21.42;12.35;;;;;;;-139.48;100.00;61217.00;5011670;28;20060;-67
2021/11/24 03:51:05;;;;;;;26.15;14.10;;;;;;;-139.48;100.00;61217.00;5012005;28;20052;-65
2021/11/24 03:53:49;;;;;;;18.27;11.82;;;;;;;-139.48;100.00;61217.00;5011986;28;20418;-65
2021/11/24 03:56:32;;;;;;;;;;;;;;;-139.48;100.00;61217.00;5012664;28;20053;-65
2021/11/24 03:59:16;;;;;;;22.53;13.37;;;;;;;-139.48;100.00;61217.00;5013164;28;19976;-67
2021/11/24 04:02:00;;;;;;;26.35;13.57;;;;;;;-139.48;100.00;61217.00;4998089;28;20052;-63
2021/11/24 04:04:44;;;;;;;26.05;14.27;;;;;;;-139.48;100.00;61217.00;4998408;28;20100;-67
2021/11/24 04:07:28;;;;;;;;;;;;;;;-139.48;100.00;61217.00;5012491;28;20053;-67
2021/11/24 04:10:13;;;;;;;23.67;13.43;;;;;;;-139.48;100.00;61217.00;4998057;28;19920;-66
2021/11/24 04:12:57;;;;;;;28.70;15.25;;;;;;;-139.48;100.00;61217.00;5012938;28;20053;-65
2021/11/24 04:15:41;;;;;;;24.20;14.45;;;;;;;-139.48;100.00;61217.00;5011693;28;20112;-67
2021/11/24 04:18:25;;;;;;;27.27;14.32;;;;;;;-139.48;100.00;61217.00;5011735;28;20068;-66
2021/11/24 04:21:09;;;;;;;;;;;;;;;-139.48;100.00;61217.00;5012011;28;20084;-67
2021/11/24 04:23:53;;;;;;;22.48;13.35;;;;;;;-139.48;100.00;61217.00;4998237;28;20282;-66
2021/11/24 04:26:37;;;;;;;;;;;;;;;-139.48;100.00;61217.00;5013331;28;20626;-67
2021/11/24 04:29:21;;;;;;;21.87;10.67;;;;;;;-139.48;100.00;61217.00;5011961;28;19944;-67
2021/11/24 04:32:05;;;;;;;25.88;15.20;;;;;;;-139.48;100.00;61217.00;5012770;28;20048;-67
2021/11/24 04:34:50;;;;;;;30.75;15.75;;;;;;;-139.48;100.00;61217.00;5011564;28;20095;-66
2021/11/24 04:37:34;;;;;;;29.98;16.55;;;;;;;-139.48;100.00;61217.00;5012018;28;20040;-67
2021/11/24 04:40:18;;;;;;;27.55;16.13;;;;;;;-139.48;100.00;61217.00;4998036;28;20419;-66
2021/11/24 04:43:05;;;;;;;;;;;;;;;-139.48;100.00;61217.00;5013051;28;20076;-67
2021/11/24 04:45:49;;;;;;;29.15;14.77;;;;;;;-139.48;100.00;61217.00;4998224;28;19920;-66
2021/11/24 04:48:34;;;;;;;25.27;14.85;;;;;;;-139.48;100.00;61217.00;5011773;28;20048;-67
2021/11/24 04:51:18;;;;;;;29.80;15.68;;;;;;;-139.48;100.00;61217.00;5011553;28;20537;-66
2021/11/24 04:54:02;;;;;;;28.52;14.85;;;;;;;-139.48;100.00;61217.00;5011714;28;20075;-67
2021/11/24 04:56:47;;;;;;;27.95;15.07;;;;;;;-139.48;100.00;61217.00;5011478;28;20057;-67
2021/11/24 04:59:31;;;;;;;31.38;15.52;;;;;;;-139.48;100.00;61217.00;5015617;28;20411;-66
2021/11/24 05:02:14;;;;;;;;;;;;;;;-139.48;100.00;61217.00;5015662;28;20453;-66
2021/11/24 05:04:58;;;;;;;25.42;15.38;;;;;;;-139.48;100.00;61217.00;5015282;28;19921;-67
2021/11/24 05:07:42;;;;;;;28.63;16.02;;;;;;;-139.48;100.00;61217.00;5001351;28;20510;-66
2021/11/24 05:10:26;;;;;;;29.10;16.10;;;;;;;-139.48;100.00;61217.00;5015091;28;20514;-65
2021/11/24 05:13:11;;;;;;;31.45;16.75;;;;;;;-139.48;100.00;61217.00;5014875;28;20099;-67
2021/11/24 05:15:58;;;;;;;33.63;17.63;;;;;;;-139.48;100.00;61217.00;5001148;28;20052;-67
2021/11/24 05:18:47;;;;;;;31.77;17.40;;;;;;;-139.48;100.00;61217.00;5014891;28;20459;-68
2021/11/24 05:21:36;;;;;;;35.13;18.40;;;;;;;-139.48;100.00;61217.00;5015591;28;20057;-67
2021/11/24 05:24:21;;;;;;;37.50;18.10;;;;;;;-139.48;100.00;61217.00;5014616;28;20052;-67
2021/11/24 05:27:05;;;;;;;33.55;16.52;;;;;;;-139.48;100.00;61217.00;5014645;28;20044;-67
2021/11/24 05:29:49;;;;;;;27.88;16.73;;;;;;;-139.48;100.00;61217.00;5014530;28;20044;-66
2021/11/24 05:32:33;;;;;;;;;;;;;;;-139.48;100.00;61217.00;5014934;28;20579;-66
2021/11/24 05:35:21;;;;;;;28.52;16.73;;;;;;;-139.48;100.00;61217.00;5001166;28;19921;-67
2021/11/24 05:38:05;;;;;;;31.08;16.77;;;;;;;-139.48;100.00;61217.00;5014689;28;20427;-66
2021/11/24 05:40:48;;;;;;;;;;;;;;;-139.48;100.00;61217.00;5000868;28;20191;-67
2021/11/24 05:43:34;;;;;;;31.95;17.02;;;;;;;-139.48;100.00;61217.00;5014604;28;19919;-67
2021/11/24 05:47:02;;;;;;;28.40;16.08;;;;;;;-139.48;100.00;61217.00;5015507;28;20090;-67
2021/11/24 05:49:26;;;;;;;35.30;17.10;;;;;;;-139.48;100.00;61217.00;5013723;28;20171;-67
2021/11/24 05:52:09;;;;;;;36.70;18.40;;;;;;;-139.48;100.00;61217.00;5013973;28;20427;-67
2021/11/24 05:54:53;;;;;;;;;;;;;;;-139.48;100.00;61217.00;5000855;28;20053;-67
2021/11/24 05:57:37;;;;;;;37.83;20.15;;;;;;;-139.48;100.00;61217.00;5015339;28;19987;-67
2021/11/24 06:00:21;;;;;;;36.33;20.90;;;;;;;-139.48;100.00;61217.00;5013854;28;20148;-67
2021/11/24 06:03:05;;;;;;;34.55;19.30;;;;;;;-139.48;100.00;61217.00;5015018;28;20149;-67
2021/11/24 06:05:50;;;;;;;35.58;18.10;;;;;;;-139.48;100.00;61217.00;5000159;28;20057;-67
2021/11/24 06:08:34;;;;;;;32.70;18.52;;;;;;;-139.48;100.00;61217.00;5014309;28;20451;-67
2021/11/24 06:11:18;;;;;;;;;;;;;;;-139.48;100.00;61217.00;5013635;28;20073;-66
2021/11/24 06:14:02;;;;;;;30.27;18.13;;;;;;;-139.48;100.00;61217.00;5014069;28;19971;-64
2021/11/24 06:16:46;;;;;;;;;;;;;;;-139.48;100.00;61217.00;5015359;28;20080;-67
2021/11/24 06:19:30;;;;;;;34.58;18.33;;;;;;;-139.48;100.00;61217.00;5013914;28;19924;-66
2021/11/24 06:22:14;;;;;;;;;;;;;;;-139.48;100.00;61217.00;5013809;28;20132;-68
2021/11/24 06:24:58;;;;;;;38.28;19.63;;;;;;;-139.48;100.00;61217.00;4999954;28;19919;-67
2021/11/24 06:27:42;;;;;;;;;;;;;;;-139.48;100.00;61217.00;5014898;28;20423;-68
2021/11/24 06:30:26;;;;;;;32.30;17.35;;;;;;;-139.48;100.00;61217.00;5013959;28;19920;-66
2021/11/24 06:33:10;;;;;;;;;;;;;;;-139.48;100.00;61217.00;5013904;28;20053;-68
2021/11/24 06:35:54;;;;;;;40.20;22.00;;;;;;;-139.48;100.00;61217.00;5013347;28;19983;-67
2021/11/24 06:38:38;;;;;;;;;;;;;;;-139.48;100.00;61217.00;5013905;28;20421;-66
2021/11/24 06:41:22;;;;;;;43.92;22.85;;;;;;;-139.48;100.00;61217.00;5013384;28;19924;-67
2021/11/24 06:44:06;;;;;;;42.28;21.83;;;;;;;-139.48;100.00;61217.00;5014440;28;20047;-66
2021/11/24 06:46:50;;;;;;;38.75;21.38;;;;;;;-139.48;100.00;61217.00;5013239;28;20463;-67
2021/11/24 06:49:33;;;;;;;;;;;;;;;-139.48;100.00;61217.00;5013754;28;20072;-67
2021/11/24 06:52:17;;;;;;;40.10;19.67;;;;;;;-139.48;100.00;61217.00;5013314;28;19921;-67
2021/11/24 06:55:03;;;;;;;39.17;19.77;;;;;;;-139.48;100.00;61217.00;5013973;28;20538;-67
2021/11/24 06:57:46;;;;;;;41.28;20.25;;;;;;;-139.48;100.00;61217.00;5014193;28;20108;-67
2021/11/24 07:00:30;;;;;;;;;;;;;;;-139.48;100.00;61217.00;5013290;28;20076;-67
2021/11/24 07:03:14;;;;;;;29.08;17.30;;;;;;;-139.48;100.00;61217.00;4999193;28;19920;-67
2021/11/24 07:05:58;;;;;;;;;;;;;;;-139.48;100.00;61217.00;4999813;28;20107;-67
2021/11/24 07:08:42;;;;;;;33.45;17.55;;;;;;;-139.48;100.00;61217.00;5013710;28;20301;-67
2021/11/24 07:11:32;;;;;;;;;;;;;;;-139.48;100.00;61217.00;5012936;28;20053;-67
2021/11/24 07:14:16;;;;;;;30.00;16.20;;;;;;;-139.48;100.00;61217.00;5012976;28;19920;-67
2021/11/24 07:16:59;;;;;;;;;;;;;;;-139.48;100.00;61217.00;4999766;28;20049;-66
2021/11/24 07:19:43;;;;;;;33.58;17.23;;;;;;;-139.48;100.00;61217.00;5013599;28;19928;-67
2021/11/24 07:22:27;;;;;;;;;;;;;;;-139.48;100.00;61217.00;4998045;28;20052;-68
2021/11/24 07:25:13;;;;;;;29.27;15.57;;;;;;;-139.48;100.00;61217.00;5012714;28;19920;-67
2021/11/24 07:27:57;;;;;;;33.25;16.33;;;;;;;-139.48;100.00;61217.00;5012415;28;20048;-66
2021/11/24 07:30:41;;;;;;;;;;;;;;;-139.48;100.00;61217.00;5012625;28;20056;-67
2021/11/24 07:33:25;;;;;;;43.78;17.40;;;;;;;-139.48;100.00;61217.00;5012335;28;20397;-67
2021/11/24 07:36:09;;;;;;;38.95;17.35;;;;;;;-139.48;100.00;61217.00;5012495;28;20045;-67
2021/11/24 07:38:52;;;;;;;;;;;;;;;-139.48;100.00;61217.00;4998617;28;20107;-67
2021/11/24 07:41:37;;;;;;;32.08;16.33;;;;;;;-139.48;100.00;61217.00;5013112;28;19921;-67
2021/11/24 07:44:21;;;;;;;35.83;17.35;;;;;;;-139.48;100.00;61217.00;5012320;28;20406;-67
2021/11/24 07:47:05;;;;;;;;;;;;;;;-139.48;100.00;61217.00;5012737;28;20356;-67
2021/11/24 07:49:49;;;;;;;24.77;13.95;;;;;;;-139.48;100.00;61217.00;5012304;28;20008;-66
2021/11/24 07:52:33;;;;;;;27.00;15.00;;;;;;;-139.48;100.00;61217.00;5012011;28;20416;-66
2021/11/24 07:55:18;;;;;;;32.92;16.25;;;;;;;-139.48;100.00;61217.00;5012045;28;20064;-66
2021/11/24 07:58:01;;;;;;;;;;;;;;;-139.48;100.00;61217.00;5012801;28;20199;-67
2021/11/24 08:00:46;;;;;;;30.23;15.93;;;;;;;-139.48;100.00;61217.00;5011806;28;19924;-67
2021/11/24 08:03:30;;;;;;;29.63;16.15;;;;;;;-139.48;100.00;61217.00;4998118;28;20048;-68
2021/11/24 08:06:14;;;;;;;28.95;15.70;;;;;;;-139.48;100.00;61217.00;5013375;28;20056;-67
2021/11/24 08:08:58;;;;;;;;;;;;;;;-139.48;100.00;61217.00;5012555;28;20140;-68
2021/11/24 08:11:42;;;;;;;23.95;13.50;;;;;;;-139.48;100.00;61217.00;5012945;28;19924;-67
2021/11/24 08:14:26;;;;;;;;;;;;;;;-139.48;100.00;61217.00;5012373;28;20053;-68
2021/11/24 08:17:10;;;;;;;27.53;13.87;;;;;;;-139.48;100.00;61217.00;5011639;28;20290;-67
2021/11/24 08:19:54;;;;;;;;;;;;;;;-139.48;100.00;61217.00;4998024;28;20353;-67
2021/11/24 08:22:38;;;;;;;28.95;13.98;;;;;;;-139.48;100.00;61217.00;5040023;23;20254;-62
2021/11/24 08:25:22;;;;;;;;;;;;;;;-139.48;100.00;61217.00;4993004;28;20502;-61
2021/11/24 08:28:06;;;;;;;24.90;12.75;;;;;;;-139.48;100.00;61217.00;4978653;28;19968;-63
2021/11/24 08:30:51;;;;;;;22.27;11.80;;;;;;;-139.48;100.00;61217.00;4992267;28;20106;-63
2021/11/24 08:33:35;;;;;;;17.85;10.57;;;;;;;-139.48;100.00;61217.00;4993835;28;20495;-64
2021/11/24 08:36:19;;;;;;;17.67;9.90;;;;;;;-139.48;100.00;61217.00;4996561;28;20516;-60
2021/11/24 08:39:05;;;;;;;15.48;8.50;;;;;;;-139.48;100.00;61217.00;4982556;28;20113;-61
2021/11/24 08:41:49;;;;;;;15.02;7.97;;;;;;;-139.48;100.00;61217.00;4996053;28;20065;-64
2021/11/24 08:44:33;;;;;;;14.00;8.38;;;;;;;-139.48;100.00;61217.00;4997046;28;20080;-63
2021/11/24 08:47:18;;;;;;;15.30;8.73;;;;;;;-139.48;100.00;61217.00;4996845;28;20188;-65
2021/11/24 08:50:03;;;;;;;13.45;8.57;;;;;;;-139.48;100.00;61217.00;4996699;28;20101;-57
2021/11/24 08:52:48;;;;;;;12.27;8.27;;;;;;;-139.48;100.00;61217.00;4995711;28;20061;-62
2021/11/24 08:55:32;;;;;;;10.98;7.63;;;;;;;-139.48;100.00;61217.00;4996913;28;20053;-62
2021/11/24 08:58:16;;;;;;;13.02;8.30;;;;;;;-139.48;100.00;61217.00;4996713;28;20064;-64
2021/11/24 09:01:00;;;;;;;10.85;7.68;;;;;;;-139.48;100.00;61217.00;4996342;28;20101;-64
2021/11/24 09:03:44;;;;;;;10.95;7.70;;;;;;;-139.48;100.00;61217.00;4981796;28;20045;-64
2021/11/24 09:06:28;;;;;;;13.70;8.30;;;;;;;-139.48;100.00;61217.00;4996660;28;20048;-64
2021/11/24 09:09:12;;;;;;;13.18;8.45;;;;;;;-139.48;100.00;61217.00;4995258;28;20140;-64
2021/11/24 09:11:56;;;;;;;12.95;8.02;;;;;;;-139.48;100.00;61217.00;4996599;28;20049;-63
2021/11/24 09:14:40;;;;;;;;;;;;;;;-139.48;100.00;61217.00;4996706;28;20045;-64
2021/11/24 09:17:24;;;;;;;14.63;10.53;;;;;;;-139.48;100.00;61217.00;4996699;28;19920;-59
2021/11/24 09:20:08;;;;;;;25.15;22.52;;;;;;;-139.48;100.00;61217.00;4996328;28;20334;-63
2021/11/24 09:22:53;;;;;;;22.73;20.35;;;;;;;-139.48;100.00;61217.00;4996096;28;20072;-64
2021/11/24 09:28:41;;;;;;;;;;;;;;;-139.48;100.00;61217.00;4959510;28;20057;-61
2021/11/24 09:31:25;;;;;;;24.70;22.02;;;;;;;-139.48;100.00;61217.00;4995369;28;20100;-65
2021/11/24 09:34:09;;;;;;;19.02;15.88;;;;;;;-139.48;100.00;61217.00;4996232;28;20053;-64
2021/11/24 09:36:53;;;;;;;28.90;26.05;;;;;;;-139.48;100.00;61217.00;4996274;28;20044;-64
2021/11/24 09:39:37;;;;;;;16.38;14.70;;;;;;;-139.48;100.00;61217.00;4994687;28;20048;-64
2021/11/24 09:42:25;;;;;;;15.20;10.65;;;;;;;-139.48;100.00;61217.00;4995869;28;20108;-67
2021/11/24 09:45:11;;;;;;;16.88;14.68;;;;;;;-139.48;100.00;61217.00;4980361;28;20053;-64
2021/11/24 09:48:00;;;;;;;18.65;16.73;;;;;;;-139.48;100.00;61217.00;4994872;28;20049;-64
2021/11/24 09:50:47;;;;;;;18.20;15.80;;;;;;;-139.48;100.00;61217.00;4995663;28;20069;-64
2021/11/24 09:53:32;;;;;;;12.77;10.05;;;;;;;-139.48;100.00;61217.00;4980791;28;20049;-64
2021/11/24 09:56:16;;;;;;;30.38;23.80;;;;;;;-139.48;100.00;61217.00;4994261;28;20049;-64
2021/11/24 09:59:00;;;;;;;17.02;15.25;;;;;;;-139.48;100.00;61217.00;4994747;28;20502;-63
2021/11/24 10:01:44;;;;;;;;;;;;;;;-139.48;100.00;61217.00;4994667;28;20048;-64
2021/11/24 10:04:28;;;;;;;15.07;13.50;;;;;;;-139.48;100.00;61217.00;4994231;28;19963;-64
2021/11/24 10:07:15;;;;;;;13.55;12.15;;;;;;;-139.48;100.00;61217.00;4995473;28;20097;-64
2021/11/24 10:09:59;;;;;;;25.02;22.52;;;;;;;-139.48;100.00;61217.00;4995506;28;20538;-58
2021/11/24 10:12:43;;;;;;;;;;;;;;;-139.48;100.00;61217.00;4994600;28;20049;-65
2021/11/24 10:15:33;;;;;;;28.58;24.73;;;;;;;-139.48;100.00;61217.00;4994161;28;19920;-64
2021/11/24 10:18:27;;;;;;;14.75;13.00;;;;;;;-139.48;100.00;61217.00;4994197;28;20093;-65
2021/11/24 10:21:20;;;;;;;17.02;15.23;;;;;;;-139.48;100.00;61217.00;4994453;28;20105;-64
2021/11/24 10:24:05;;;;;;;10.07;9.00;;;;;;;-139.48;100.00;61217.00;4994791;28;20097;-64
2021/11/24 10:26:49;;;;;;;19.30;15.43;;;;;;;-139.48;100.00;61217.00;4993961;28;20132;-64
2021/11/24 10:29:35;;;;;;;15.02;13.48;;;;;;;-139.48;100.00;61217.00;4993939;28;20049;-64
2021/11/24 10:32:26;;;;;;;14.85;12.00;;;;;;;-139.48;100.00;61217.00;4980064;28;20503;-63
2021/11/24 10:35:10;;;;;;;12.38;9.20;;;;;;;-139.48;100.00;61217.00;4994927;28;20135;-64
2021/11/24 10:38:12;;;;;;;18.58;15.15;;;;;;;-139.48;100.00;61217.00;4994109;28;20104;-64
2021/11/24 10:40:56;;;;;;;16.25;14.57;;;;;;;-139.48;100.00;61217.00;4994816;28;20052;-64
2021/11/24 10:43:45;;;;;;;15.23;12.80;;;;;;;-139.48;100.00;61217.00;4995009;28;20136;-66
2021/11/24 10:46:30;;;;;;;15.27;13.10;;;;;;;-139.48;100.00;61217.00;4993691;28;20159;-65
2021/11/24 10:49:14;;;;;;;17.92;15.07;;;;;;;-139.48;100.00;61217.00;4994412;28;20427;-64
2021/11/24 10:51:58;;;;;;;11.55;9.18;;;;;;;-139.48;100.00;61217.00;4994398;28;20096;-64
2021/11/24 10:54:44;;;;;;;11.98;9.77;;;;;;;-139.48;100.00;61217.00;4993866;28;20079;-63
2021/11/24 10:57:30;;;;;;;11.02;9.38;;;;;;;-139.48;100.00;61217.00;4993341;28;20507;-63
2021/11/24 11:49:43;;;;;;;17.52;14.60;;;;;;;-139.48;100.00;61217.00;4993809;28;20041;-64
2021/11/24 11:52:27;;;;;;;20.50;18.48;;;;;;;-139.48;100.00;61217.00;4993609;28;20113;-64
2021/11/24 11:55:20;;;;;;;12.30;10.43;;;;;;;-139.48;100.00;61217.00;4993541;28;20049;-64
2021/11/24 11:58:24;;;;;;;11.90;10.70;;;;;;;-139.48;100.00;61217.00;4992533;28;20053;-64
2021/11/24 12:01:11;;;;;;;13.10;11.35;;;;;;;-139.48;100.00;61217.00;4993635;28;20088;-65
2021/11/24 12:04:16;;;;;;;13.00;11.70;;;;;;;-139.48;100.00;61217.00;4993465;28;20418;-64
2021/11/24 12:07:00;;;;;;;17.02;13.98;;;;;;;-139.48;100.00;61217.00;4993369;28;20084;-65
2021/11/24 12:09:45;;;;;;;13.15;11.73;;;;;;;-139.48;100.00;61217.00;4993282;28;20081;-65
2021/11/24 12:12:33;;;;;;;13.80;10.70;;;;;;;-139.48;100.00;61217.00;4993944;28;20065;-64
2021/11/24 12:15:28;;;;;;;12.25;10.98;;;;;;;-139.48;100.00;61217.00;4992275;28;20065;-64
2021/11/24 12:18:13;;;;;;;26.40;23.80;;;;;;;-139.48;100.00;61217.00;4993221;28;20104;-64
2021/11/24 12:20:57;;;;;;;13.05;11.10;;;;;;;-139.48;100.00;61217.00;4993394;28;20052;-63
2021/11/24 12:23:40;;;;;;;;;;;;;;;-139.48;100.00;61217.00;4993486;28;20068;-65
2021/11/24 12:26:24;;;;;;;13.23;11.75;;;;;;;-139.48;100.00;61217.00;4978423;28;19925;-64
2021/11/24 12:29:45;;;;;;;17.17;15.43;;;;;;;-139.48;100.00;61217.00;4993339;28;20073;-64
2021/11/24 12:32:29;;;;;;;11.48;10.25;;;;;;;-139.48;100.00;61217.00;4978516;28;20049;-64
2021/11/24 12:35:17;;;;;;;10.88;9.77;;;;;;;-139.48;100.00;61217.00;4993051;28;20097;-65
2021/11/24 12:38:10;;;;;;;13.52;12.20;;;;;;;-139.48;100.00;61217.00;4993490;28;20526;-66
2021/11/24 12:40:57;;;;;;;19.88;17.95;;;;;;;-139.48;100.00;61217.00;4978178;28;20093;-65
2021/11/24 12:43:45;;;;;;;13.50;9.68;;;;;;;-139.48;100.00;61217.00;4991865;28;20112;-66
2021/11/24 12:46:32;;;;;;;12.07;10.88;;;;;;;-139.48;100.00;61217.00;4992899;28;20046;-66
2021/11/24 12:49:17;;;;;;;13.63;10.52;;;;;;;-139.48;100.00;61217.00;4993016;28;20045;-66
2021/11/24 12:52:02;;;;;;;11.27;10.07;;;;;;;-139.48;100.00;61217.00;4991818;28;20054;-66
2021/11/24 12:54:48;;;;;;;11.20;9.75;;;;;;;-139.48;100.00;61217.00;4993065;28;20057;-66
2021/11/24 12:57:32;;;;;;;10.85;9.75;;;;;;;-139.48;100.00;61217.00;4978600;28;20097;-65
2021/11/24 13:00:31;;;;;;;10.02;8.50;;;;;;;-139.48;100.00;61217.00;4992774;28;20045;-66
2021/11/24 13:03:15;;;;;;;10.27;9.18;;;;;;;-139.48;100.00;61217.00;4992667;28;20054;-66
2021/11/24 13:05:59;;;;;;;15.93;14.30;;;;;;;-139.48;100.00;61217.00;4992039;28;20053;-66
2021/11/24 13:08:58;;;;;;;14.82;13.38;;;;;;;-139.48;100.00;61217.00;4991707;28;20073;-65
2021/11/24 13:11:55;;;;;;;21.17;18.35;;;;;;;-139.48;100.00;61217.00;4991991;28;20045;-66
2021/11/24 13:14:45;;;;;;;12.52;10.82;;;;;;;-139.48;100.00;61217.00;4991877;28;20074;-66
2021/11/24 13:17:32;;;;;;;25.13;22.52;;;;;;;-139.48;100.00;61217.00;4991585;28;20511;-66
2021/11/24 13:20:22;;;;;;;15.77;12.23;;;;;;;-139.48;100.00;61217.00;4980797;28;20048;-65
2021/11/24 13:23:06;;;;;;;16.38;13.30;;;;;;;-139.48;100.00;61217.00;4995431;28;20491;-64
2021/11/24 13:25:50;;;;;;;11.65;9.32;;;;;;;-139.48;100.00;61217.00;4995231;28;20056;-66